Greenslough, Ireland
Current Conditions -  °F | °C
As of 4:30 PM on Friday 21 Nov 2014 (Local Time) from EIDL Reporting Station
Overcast Overcast  
Wind Chill: 50°   Ceiling: 4200
Heat Index: 50°   Visibility: 6mi
Dew Point: 45°   Wind: 31mph
Humidity: 82%   Direction: 140°SE
Pressure: 29.65"   Gusts: NA
Location:  55.12°N, 7.9°W
Report Text: EIDL 211630Z 14027KT 9999 FEW021 SCT032 OVC042 10/07 Q1004
Loading
Personal Weather Stations






























Interactive Weather Map New forecast layout! Learn more

10-Day Weather Forecast

Advertisements
Track Severe Weather on mobile